Ana Sayfa
METAR-TAF:

METAR-TAF

Havaalanları :

Fort George G. Meade, Maryland, Amerika Birleşik Devletleri

Enlem: 39-05N, Boylam: 076-46W, yükseklik: 46 m

Güncel hava durumu gözlemi

Rapor saat 09:03 UTC de 34 dakika önce yapıldı.
Sakin rüzgar
Sıcaklık 11°C
Nem 100%
Basınç 1018 hPa
Görüş mesafesi: 4.8 km
3900 ft yükseklikte çok bulutlu

METAR: KFME 280903Z AUTO 00000KT 3SM OVC039 11/11 A3005 RMK AO1

Saat: 05:37 (09:37 UTC)


TAF: eksik

4.000'den fazla havaalanı için hava durumu gözlemleri ve tahminleri (METAR ve TAF raporları).

Kullanılabilir istasyonlar harita üzerinde sarı ve kırmızı noktalarla gösterilir.

İstasyonun adını görmek için fareyi noktanın üzerinde gezdirin.

Sonrasında hava gözlem ve tahminlerini görmek için tıklayın.

Haritayı değiştirmek için: yaklaştırmak için siyah artı işaretli yeşil düğmeye ve uzaklaştırmak için de eksi işaretli düğmeye hızla tıklayın; bitişik haritalar için yeşil okları kullanın.


METAR-TAF: